Terminal Aerodrome Forecast
Issued by NWS Atlanta, GA

Home | Current Version | Previous Version | Text Only | Print | Product List | Glossary On
Versions: 1 2 3 4 5 6 7 8 9 10 11 12 13 14 15 16 17 18 19
000
FTUS42 KFFC 021726
TAFMCN
TAF
KMCN 021726Z 0218/0318 27005KT P6SM BKN045
     FM022000 27003KT P6SM VCSH BKN045
     FM030100 00000KT P6SM BKN250
     FM030800 00000KT 2SM BR SCT005
     FM031400 12001KT P6SM FEW250=

USA.gov is the U.S. government's official web portal to all federal, state and local government web resources and services.